Wetterdaten: April 2017
Datum Temp Feuchte Luftdruck Regen Wind Richtung Sonnenschein UV Solar Windben
01.04.2017 13,2 C 77 % 1011,0 hPa 2,0 l/m 0,4 km/h SO 5,83 h 1,6 UV-I 235 W/m 5,7 km/h
02.04.2017 10,2 C 81 % 1019,8 hPa 0,0 l/m 0,6 km/h NW 5,50 h 1,7 UV-I 287 W/m 2,8 km/h
03.04.2017 7,8 C 85 % 1025,8 hPa 0,0 l/m 1,0 km/h N 5,08 h 2,1 UV-I 290 W/m 3,6 km/h
04.04.2017 7,1 C 82 % 1024,0 hPa 0,2 l/m 0,0 km/h N-NO 9,25 h 2,2 UV-I 379 W/m 0,0 km/h
05.04.2017 6,9 C 76 % 1023,3 hPa 0,0 l/m 2,3 km/h N-NW 5,33 h 1,8 UV-I 243 W/m 10,9 km/h
06.04.2017 7,4 C 76 % 1025,3 hPa 0,2 l/m 1,2 km/h NW 2,58 h 1,9 UV-I 248 W/m 12,9 km/h
07.04.2017 9,0 C 83 % 1023,1 hPa 0,0 l/m 1,2 km/h W 0,08 h 1,2 UV-I 116 W/m 10,1 km/h
08.04.2017 10,4 C 79 % 1023,8 hPa 0,0 l/m 0,1 km/h NW 1,83 h 1,7 UV-I 201 W/m 2,4 km/h
09.04.2017 11,1 C 75 % 1021,7 hPa 0,2 l/m 0,0 km/h S 11,00 h 2,7 UV-I 411 W/m 0,0 km/h
10.04.2017 10,4 C 69 % 1018,7 hPa 0,0 l/m 4,9 km/h N-NW 2,50 h 1,1 UV-I 157 W/m 20,9 km/h
11.04.2017 7,9 C 74 % 1023,2 hPa 0,0 l/m 7,2 km/h S-SW 2,25 h 1,6 UV-I 182 W/m 21,3 km/h
12.04.2017 8,5 C 82 % 1013,0 hPa 3,8 l/m 7,0 km/h SW 2,25 h 1,6 UV-I 182 W/m 24,1 km/h
13.04.2017 7,4 C 84 % 1013,3 hPa 2,6 l/m 3,2 km/h NW 0,33 h 1,1 UV-I 111 W/m 11,6 km/h
14.04.2017 7,3 C 81 % 1015,2 hPa 0,0 l/m 0,8 km/h W 2,00 h 1,7 UV-I 185 W/m 6,0 km/h
15.04.2017 6,9 C 81 % 1012,7 hPa 5,0 l/m 3,9 km/h S-SW 0,67 h 1,0 UV-I 101 W/m 18,9 km/h
16.04.2017 6,7 C 83 % 1017,0 hPa 2,0 l/m 3,9 km/h N-NW 3,42 h 2,0 UV-I 271 W/m 6,4 km/h
17.04.2017 5,0 C 81 % 1016,4 hPa 5,8 l/m 1,7 km/h N-NW 2,58 h 1,9 UV-I 232 W/m 6,0 km/h
18.04.2017 3,7 C 83 % 1026,2 hPa 2,0 l/m 5,2 km/h N-NW 1,83 h 1,4 UV-I 171 W/m 15,3 km/h
19.04.2017 2,0 C 75 % 1034,8 hPa 0,0 l/m 0,9 km/h N-NO 4,33 h 1,8 UV-I 265 W/m 6,1 km/h
20.04.2017 5,3 C 62 % 1034,4 hPa 0,2 l/m 1,4 km/h NW 10,42 h 2,6 UV-I 430 W/m 3,6 km/h
21.04.2017 8,7 C 78 % 1026,1 hPa 0,2 l/m 4,6 km/h SW 0,50 h 1,6 UV-I 147 W/m 24,5 km/h
22.04.2017 5,9 C 78 % 1021,7 hPa 3,2 l/m 9,3 km/h N-NW 1,67 h 1,7 UV-I 200 W/m 22,5 km/h
23.04.2017 4,0 C 81 % 1023,0 hPa 0,8 l/m 1,0 km/h NW 1,08 h 1,7 UV-I 165 W/m 5,6 km/h
24.04.2017 8,6 C 72 % 1011,9 hPa 0,0 l/m 1,3 km/h S-SW 8,25 h 2,5 UV-I 377 W/m 8,1 km/h
25.04.2017 4,1 C 85 % 1007,0 hPa 5,4 l/m 4,6 km/h W 2,25 h 2,0 UV-I 215 W/m 12,5 km/h
26.04.2017 4,2 C 76 % 1012,1 hPa 0,2 l/m 4,9 km/h NW 6,67 h 2,1 UV-I 330 W/m 8,9 km/h
27.04.2017 4,5 C 73 % 1014,9 hPa 0,0 l/m 1,0 km/h W-NW 7,75 h 2,1 UV-I 381 W/m 6,0 km/h
28.04.2017 6,2 C 77 % 1013,7 hPa 0,0 l/m 0,5 km/h W-NW 6,92 h 1,9 UV-I 320 W/m 3,2 km/h
29.04.2017 5,2 C 78 % 1017,5 hPa 0,0 l/m 0,6 km/h W 2,00 h 1,6 UV-I 219 W/m 2,0 km/h
30.04.2017 10,3 C 55 % 1012,5 hPa 0,0 l/m 11,5 km/h SO 11,50 h 2,6 UV-I 449 W/m 24,9 km/h
Min-Datum 20.04.17 09.04.17 25.04.17 16 Tage 01.04.17 - - - - 01.04.17
Min-Zeit 06:40 17:15 03:55 - 00:20 - - - - 00:20
Minimum -3,9 C 31 % 1002,6 hPa - 0,0 km/h - - - - 0,0 km/h
Max-Datum 09.04.17 04.04.17 20.04.17 17.04.17 30.04.17 - 30.04.17 22.04.17 25.04.17 30.04.17
Max-Zeit 16:15 06:05 10:15 00:45 13:40 - 19:30 13:05 13:30 16:20
Maximum 21,8 C 100 % 1036,5 hPa 5,8 l/m 26,6 km/h
SO
- 11,42 h 5,8 UV-I 1049 W/m 49,9 km/h
SO
Durchschnitt 7,2 C 77 % 1019,4 hPa #33,8 l/m 2,9 km/h NW #127:40 h 1,8 UV-I 250 W/m 10,2 km/h

Durchschnitt Minimum Temp.2,0 C
Durchschnitt Maximum Temp.12,3 C